sensor_id;sensor_type;location;lat;lon;timestamp;pressure;altitude;pressure_sealevel;temperature;humidity
7309;BME280;3695;53.330;9.876;2023-07-08T00:00:08;102670.91;;;27.21;100.00
7309;BME280;3695;53.330;9.876;2023-07-08T00:02:35;102666.31;;;27.50;100.00
7309;BME280;3695;53.330;9.876;2023-07-08T00:05:02;102671.16;;;27.24;100.00
7309;BME280;3695;53.330;9.876;2023-07-08T00:07:29;102660.53;;;27.86;100.00
7309;BME280;3695;53.330;9.876;2023-07-08T00:09:56;102637.00;;;29.13;100.00
7309;BME280;3695;53.330;9.876;2023-07-08T00:12:23;102646.44;;;28.69;100.00
7309;BME280;3695;53.330;9.876;2023-07-08T00:14:49;102621.09;;;29.32;100.00
7309;BME280;3695;53.330;9.876;2023-07-08T00:17:16;102651.78;;;28.37;100.00
7309;BME280;3695;53.330;9.876;2023-07-08T00:19:42;102631.47;;;30.53;100.00
7309;BME280;3695;53.330;9.876;2023-07-08T00:22:11;102640.47;;;29.66;100.00
7309;BME280;3695;53.330;9.876;2023-07-08T00:24:39;102639.16;;;28.97;100.00
7309;BME280;3695;53.330;9.876;2023-07-08T00:27:10;102618.94;;;30.04;100.00
7309;BME280;3695;53.330;9.876;2023-07-08T00:29:37;102631.41;;;29.93;100.00
7309;BME280;3695;53.330;9.876;2023-07-08T00:32:09;102630.16;;;29.24;100.00
7309;BME280;3695;53.330;9.876;2023-07-08T00:34:36;102620.78;;;30.28;100.00
7309;BME280;3695;53.330;9.876;2023-07-08T00:37:03;102618.88;;;29.72;100.00
7309;BME280;3695;53.330;9.876;2023-07-08T00:39:30;102617.81;;;30.19;100.00
7309;BME280;3695;53.330;9.876;2023-07-08T00:41:58;102637.75;;;29.61;100.00
7309;BME280;3695;53.330;9.876;2023-07-08T00:44:26;102640.31;;;28.96;100.00
7309;BME280;3695;53.330;9.876;2023-07-08T00:46:57;102624.72;;;29.14;100.00
7309;BME280;3695;53.330;9.876;2023-07-08T00:49:34;102639.41;;;28.48;100.00
7309;BME280;3695;53.330;9.876;2023-07-08T00:52:17;102619.78;;;29.49;100.00
7309;BME280;3695;53.330;9.876;2023-07-08T00:54:45;102619.88;;;29.43;100.00
7309;BME280;3695;53.330;9.876;2023-07-08T00:57:11;102610.59;;;29.99;100.00
7309;BME280;3695;53.330;9.876;2023-07-08T00:59:43;102604.81;;;30.42;100.00
7309;BME280;3695;53.330;9.876;2023-07-08T01:02:12;102603.19;;;30.68;100.00
7309;BME280;3695;53.330;9.876;2023-07-08T01:04:44;102620.03;;;29.52;100.00
7309;BME280;3695;53.330;9.876;2023-07-08T01:07:14;102613.97;;;29.83;100.00
7309;BME280;3695;53.330;9.876;2023-07-08T01:09:50;102605.38;;;30.12;100.00
7309;BME280;3695;53.330;9.876;2023-07-08T01:12:20;102606.63;;;29.87;100.00
7309;BME280;3695;53.330;9.876;2023-07-08T01:14:51;102607.28;;;29.78;100.00
7309;BME280;3695;53.330;9.876;2023-07-08T01:17:20;102613.28;;;28.92;100.00
7309;BME280;3695;53.330;9.876;2023-07-08T01:19:47;102611.19;;;29.02;100.00
7309;BME280;3695;53.330;9.876;2023-07-08T01:22:18;102591.28;;;30.63;100.00
7309;BME280;3695;53.330;9.876;2023-07-08T01:24:44;102606.53;;;30.98;98.08
7309;BME280;3695;53.330;9.876;2023-07-08T01:27:13;102604.38;;;29.51;100.00
7309;BME280;3695;53.330;9.876;2023-07-08T01:29:41;102598.25;;;29.68;100.00
7309;BME280;3695;53.330;9.876;2023-07-08T01:32:11;102588.78;;;30.61;100.00
7309;BME280;3695;53.330;9.876;2023-07-08T01:34:44;102587.72;;;30.44;99.95
7309;BME280;3695;53.330;9.876;2023-07-08T01:37:30;102593.41;;;29.73;100.00
7309;BME280;3695;53.330;9.876;2023-07-08T01:40:13;102610.22;;;29.12;100.00
7309;BME280;3695;53.330;9.876;2023-07-08T01:42:40;102603.94;;;29.01;100.00
7309;BME280;3695;53.330;9.876;2023-07-08T01:45:10;102607.47;;;28.59;100.00
7309;BME280;3695;53.330;9.876;2023-07-08T01:47:37;102598.88;;;28.79;100.00
7309;BME280;3695;53.330;9.876;2023-07-08T01:50:04;102617.88;;;27.46;100.00
7309;BME280;3695;53.330;9.876;2023-07-08T01:52:32;102587.34;;;29.29;100.00
7309;BME280;3695;53.330;9.876;2023-07-08T01:54:59;102589.97;;;28.77;100.00
7309;BME280;3695;53.330;9.876;2023-07-08T01:57:25;102578.75;;;29.06;100.00
7309;BME280;3695;53.330;9.876;2023-07-08T01:59:52;102589.88;;;28.35;100.00
7309;BME280;3695;53.330;9.876;2023-07-08T02:02:18;102575.25;;;28.72;100.00
7309;BME280;3695;53.330;9.876;2023-07-08T02:04:44;102589.19;;;28.48;100.00
7309;BME280;3695;53.330;9.876;2023-07-08T02:07:11;102578.59;;;28.98;100.00
7309;BME280;3695;53.330;9.876;2023-07-08T02:09:39;102574.13;;;28.97;100.00
7309;BME280;3695;53.330;9.876;2023-07-08T02:12:06;102596.03;;;28.32;100.00
7309;BME280;3695;53.330;9.876;2023-07-08T02:14:32;102581.38;;;28.50;100.00
7309;BME280;3695;53.330;9.876;2023-07-08T02:16:58;102575.41;;;29.04;100.00
7309;BME280;3695;53.330;9.876;2023-07-08T02:19:25;102581.19;;;28.65;100.00
7309;BME280;3695;53.330;9.876;2023-07-08T02:21:52;102588.97;;;28.10;100.00
7309;BME280;3695;53.330;9.876;2023-07-08T02:24:20;102596.72;;;27.40;100.00
7309;BME280;3695;53.330;9.876;2023-07-08T02:26:48;102587.50;;;28.18;100.00
7309;BME280;3695;53.330;9.876;2023-07-08T02:29:15;102600.13;;;27.32;100.00
7309;BME280;3695;53.330;9.876;2023-07-08T02:31:41;102609.72;;;26.95;100.00
7309;BME280;3695;53.330;9.876;2023-07-08T02:34:08;102602.09;;;26.42;100.00
7309;BME280;3695;53.330;9.876;2023-07-08T02:36:35;102595.75;;;27.16;100.00
7309;BME280;3695;53.330;9.876;2023-07-08T02:39:03;102597.56;;;27.41;100.00
7309;BME280;3695;53.330;9.876;2023-07-08T02:41:30;102595.13;;;27.29;100.00
7309;BME280;3695;53.330;9.876;2023-07-08T02:43:58;102605.03;;;26.91;100.00
7309;BME280;3695;53.330;9.876;2023-07-08T02:46:25;102609.91;;;26.40;100.00
7309;BME280;3695;53.330;9.876;2023-07-08T02:48:52;102605.94;;;26.71;100.00
7309;BME280;3695;53.330;9.876;2023-07-08T02:51:18;102616.00;;;26.26;100.00
7309;BME280;3695;53.330;9.876;2023-07-08T02:53:44;102604.03;;;26.56;100.00
7309;BME280;3695;53.330;9.876;2023-07-08T02:56:11;102602.59;;;26.74;100.00
7309;BME280;3695;53.330;9.876;2023-07-08T02:58:37;102594.66;;;27.66;100.00
7309;BME280;3695;53.330;9.876;2023-07-08T03:01:05;102585.16;;;28.01;100.00
7309;BME280;3695;53.330;9.876;2023-07-08T03:03:31;102577.72;;;28.73;100.00
7309;BME280;3695;53.330;9.876;2023-07-08T03:06:01;102582.78;;;32.12;100.00
7309;BME280;3695;53.330;9.876;2023-07-08T03:08:29;102571.44;;;31.86;98.06
7309;BME280;3695;53.330;9.876;2023-07-08T03:10:58;102554.69;;;32.66;97.00
7309;BME280;3695;53.330;9.876;2023-07-08T03:13:25;102543.25;;;33.45;94.81
7309;BME280;3695;53.330;9.876;2023-07-08T03:15:52;102571.25;;;32.14;94.16
7309;BME280;3695;53.330;9.876;2023-07-08T03:18:21;102546.25;;;33.40;94.47
7309;BME280;3695;53.330;9.876;2023-07-08T03:20:49;102544.03;;;32.94;95.39
7309;BME280;3695;53.330;9.876;2023-07-08T03:23:15;102560.94;;;32.23;95.24
7309;BME280;3695;53.330;9.876;2023-07-08T03:25:42;102570.81;;;31.17;96.29
7309;BME280;3695;53.330;9.876;2023-07-08T03:28:08;102544.53;;;32.87;93.54
7309;BME280;3695;53.330;9.876;2023-07-08T03:30:40;102535.16;;;34.25;91.61
7309;BME280;3695;53.330;9.876;2023-07-08T03:33:07;102564.16;;;32.39;93.44
7309;BME280;3695;53.330;9.876;2023-07-08T03:35:35;102566.31;;;31.88;93.70
7309;BME280;3695;53.330;9.876;2023-07-08T03:38:02;102594.31;;;26.44;100.00
7309;BME280;3695;53.330;9.876;2023-07-08T03:40:28;102582.66;;;27.66;100.00
7309;BME280;3695;53.330;9.876;2023-07-08T03:42:55;102591.13;;;27.01;100.00
7309;BME280;3695;53.330;9.876;2023-07-08T03:45:21;102586.34;;;27.07;100.00
7309;BME280;3695;53.330;9.876;2023-07-08T03:47:48;102581.88;;;27.55;100.00
7309;BME280;3695;53.330;9.876;2023-07-08T03:50:17;102590.72;;;27.23;100.00
7309;BME280;3695;53.330;9.876;2023-07-08T03:52:46;102595.72;;;26.51;100.00
7309;BME280;3695;53.330;9.876;2023-07-08T03:55:13;102590.69;;;27.28;100.00
7309;BME280;3695;53.330;9.876;2023-07-08T03:57:40;102593.63;;;26.87;100.00
7309;BME280;3695;53.330;9.876;2023-07-08T04:00:07;102606.00;;;26.30;100.00
7309;BME280;3695;53.330;9.876;2023-07-08T04:02:37;102593.34;;;26.99;100.00
7309;BME280;3695;53.330;9.876;2023-07-08T04:05:05;102597.78;;;27.54;100.00
7309;BME280;3695;53.330;9.876;2023-07-08T04:07:31;102591.34;;;27.10;100.00
7309;BME280;3695;53.330;9.876;2023-07-08T04:09:59;102581.59;;;27.96;100.00
7309;BME280;3695;53.330;9.876;2023-07-08T04:12:26;102585.22;;;27.96;100.00
7309;BME280;3695;53.330;9.876;2023-07-08T04:14:53;102585.84;;;28.17;100.00
7309;BME280;3695;53.330;9.876;2023-07-08T04:17:19;102596.31;;;28.01;100.00
7309;BME280;3695;53.330;9.876;2023-07-08T04:19:48;102592.66;;;26.53;100.00
7309;BME280;3695;53.330;9.876;2023-07-08T04:22:15;102586.81;;;27.68;100.00
7309;BME280;3695;53.330;9.876;2023-07-08T04:24:41;102583.16;;;28.07;100.00
7309;BME280;3695;53.330;9.876;2023-07-08T04:27:12;102564.75;;;30.88;100.00
7309;BME280;3695;53.330;9.876;2023-07-08T04:29:39;102589.00;;;28.92;100.00
7309;BME280;3695;53.330;9.876;2023-07-08T04:32:06;102595.72;;;28.62;100.00
7309;BME280;3695;53.330;9.876;2023-07-08T04:34:33;102609.25;;;27.48;100.00
7309;BME280;3695;53.330;9.876;2023-07-08T04:36:59;102610.03;;;27.53;100.00
7309;BME280;3695;53.330;9.876;2023-07-08T04:39:26;102609.38;;;27.72;100.00
7309;BME280;3695;53.330;9.876;2023-07-08T04:41:53;102611.50;;;27.85;100.00
7309;BME280;3695;53.330;9.876;2023-07-08T04:44:21;102619.13;;;27.20;100.00
7309;BME280;3695;53.330;9.876;2023-07-08T04:46:49;102606.88;;;27.70;100.00
7309;BME280;3695;53.330;9.876;2023-07-08T04:49:18;102610.25;;;27.67;100.00
7309;BME280;3695;53.330;9.876;2023-07-08T04:51:45;102599.56;;;28.13;100.00
7309;BME280;3695;53.330;9.876;2023-07-08T04:54:11;102605.97;;;28.14;100.00
7309;BME280;3695;53.330;9.876;2023-07-08T04:56:39;102600.31;;;28.24;100.00
7309;BME280;3695;53.330;9.876;2023-07-08T04:59:08;102620.03;;;27.05;100.00
7309;BME280;3695;53.330;9.876;2023-07-08T05:01:37;102602.41;;;27.69;100.00
7309;BME280;3695;53.330;9.876;2023-07-08T05:04:04;102597.69;;;28.04;100.00
7309;BME280;3695;53.330;9.876;2023-07-08T05:06:31;102593.03;;;28.23;100.00
7309;BME280;3695;53.330;9.876;2023-07-08T05:08:58;102593.72;;;27.76;100.00
7309;BME280;3695;53.330;9.876;2023-07-08T05:11:24;102600.47;;;27.70;100.00
7309;BME280;3695;53.330;9.876;2023-07-08T05:13:51;102598.47;;;28.09;100.00
7309;BME280;3695;53.330;9.876;2023-07-08T05:16:17;102608.19;;;27.78;100.00
7309;BME280;3695;53.330;9.876;2023-07-08T05:18:45;102593.44;;;28.11;100.00
7309;BME280;3695;53.330;9.876;2023-07-08T05:21:12;102590.53;;;28.21;100.00
7309;BME280;3695;53.330;9.876;2023-07-08T05:23:39;102603.78;;;27.72;100.00
7309;BME280;3695;53.330;9.876;2023-07-08T05:26:05;102591.53;;;28.36;100.00
7309;BME280;3695;53.330;9.876;2023-07-08T05:28:33;102588.25;;;28.00;100.00
7309;BME280;3695;53.330;9.876;2023-07-08T05:31:00;102585.97;;;28.36;100.00
7309;BME280;3695;53.330;9.876;2023-07-08T05:33:28;102595.63;;;28.14;100.00
7309;BME280;3695;53.330;9.876;2023-07-08T05:35:57;102574.72;;;28.46;100.00
7309;BME280;3695;53.330;9.876;2023-07-08T05:38:24;102601.94;;;26.92;100.00
7309;BME280;3695;53.330;9.876;2023-07-08T05:40:51;102580.50;;;28.26;100.00
7309;BME280;3695;53.330;9.876;2023-07-08T05:43:19;102569.06;;;28.75;100.00
7309;BME280;3695;53.330;9.876;2023-07-08T05:45:46;102571.88;;;28.51;100.00
7309;BME280;3695;53.330;9.876;2023-07-08T05:48:13;102564.13;;;29.33;100.00
7309;BME280;3695;53.330;9.876;2023-07-08T05:50:40;102578.97;;;29.29;100.00
7309;BME280;3695;53.330;9.876;2023-07-08T05:53:09;102584.31;;;28.82;100.00
7309;BME280;3695;53.330;9.876;2023-07-08T05:55:36;102593.00;;;30.45;100.00
7309;BME280;3695;53.330;9.876;2023-07-08T05:58:03;102596.97;;;28.75;100.00
7309;BME280;3695;53.330;9.876;2023-07-08T06:00:29;102584.66;;;30.13;100.00
7309;BME280;3695;53.330;9.876;2023-07-08T06:02:56;102586.03;;;29.45;100.00
7309;BME280;3695;53.330;9.876;2023-07-08T06:05:22;102566.72;;;30.87;100.00
7309;BME280;3695;53.330;9.876;2023-07-08T06:07:49;102562.53;;;30.98;100.00
7309;BME280;3695;53.330;9.876;2023-07-08T06:10:17;102563.81;;;30.79;100.00
7309;BME280;3695;53.330;9.876;2023-07-08T06:12:43;102550.56;;;32.72;99.96
7309;BME280;3695;53.330;9.876;2023-07-08T06:15:10;102564.50;;;31.48;100.00
7309;BME280;3695;53.330;9.876;2023-07-08T06:17:37;102576.31;;;30.54;100.00
7309;BME280;3695;53.330;9.876;2023-07-08T06:20:04;102576.81;;;31.11;100.00
7309;BME280;3695;53.330;9.876;2023-07-08T06:22:31;102580.78;;;30.55;100.00
7309;BME280;3695;53.330;9.876;2023-07-08T06:24:57;102576.47;;;30.62;100.00
7309;BME280;3695;53.330;9.876;2023-07-08T06:27:25;102567.31;;;30.70;100.00
7309;BME280;3695;53.330;9.876;2023-07-08T06:29:53;102585.41;;;30.18;100.00
7309;BME280;3695;53.330;9.876;2023-07-08T06:32:19;102572.50;;;30.91;100.00
7309;BME280;3695;53.330;9.876;2023-07-08T06:34:47;102579.78;;;30.64;100.00
7309;BME280;3695;53.330;9.876;2023-07-08T06:37:13;102586.72;;;30.07;100.00
7309;BME280;3695;53.330;9.876;2023-07-08T06:39:40;102578.50;;;30.57;100.00
7309;BME280;3695;53.330;9.876;2023-07-08T06:42:08;102565.00;;;32.79;100.00
7309;BME280;3695;53.330;9.876;2023-07-08T06:44:36;102561.97;;;33.32;100.00
7309;BME280;3695;53.330;9.876;2023-07-08T06:47:03;102562.38;;;33.00;97.35
7309;BME280;3695;53.330;9.876;2023-07-08T06:49:30;102584.50;;;31.05;100.00
7309;BME280;3695;53.330;9.876;2023-07-08T06:51:56;102583.47;;;30.46;100.00
7309;BME280;3695;53.330;9.876;2023-07-08T06:54:25;102563.81;;;31.64;100.00
7309;BME280;3695;53.330;9.876;2023-07-08T06:56:53;102583.41;;;30.79;100.00
7309;BME280;3695;53.330;9.876;2023-07-08T06:59:19;102577.50;;;31.80;100.00
7309;BME280;3695;53.330;9.876;2023-07-08T07:01:47;102561.97;;;32.27;100.00
7309;BME280;3695;53.330;9.876;2023-07-08T07:04:14;102564.63;;;31.65;100.00
7309;BME280;3695;53.330;9.876;2023-07-08T07:06:40;102582.16;;;30.71;100.00
7309;BME280;3695;53.330;9.876;2023-07-08T07:09:06;102578.34;;;30.81;100.00
7309;BME280;3695;53.330;9.876;2023-07-08T07:11:33;102578.13;;;30.63;100.00
7309;BME280;3695;53.330;9.876;2023-07-08T07:13:59;102579.28;;;30.16;100.00
7309;BME280;3695;53.330;9.876;2023-07-08T07:16:26;102574.88;;;30.56;100.00
7309;BME280;3695;53.330;9.876;2023-07-08T07:18:53;102561.91;;;31.15;100.00
7309;BME280;3695;53.330;9.876;2023-07-08T07:21:20;102585.00;;;30.25;100.00
7309;BME280;3695;53.330;9.876;2023-07-08T07:23:46;102573.41;;;29.99;100.00
7309;BME280;3695;53.330;9.876;2023-07-08T07:26:13;102584.78;;;28.95;100.00
7309;BME280;3695;53.330;9.876;2023-07-08T07:28:40;102552.59;;;31.42;100.00
7309;BME280;3695;53.330;9.876;2023-07-08T07:31:07;102545.69;;;33.03;100.00
7309;BME280;3695;53.330;9.876;2023-07-08T07:33:36;102533.44;;;32.91;99.18
7309;BME280;3695;53.330;9.876;2023-07-08T07:36:04;102529.34;;;33.74;96.96
7309;BME280;3695;53.330;9.876;2023-07-08T07:38:33;102548.53;;;32.64;97.89
7309;BME280;3695;53.330;9.876;2023-07-08T07:41:00;102562.50;;;31.84;98.81
7309;BME280;3695;53.330;9.876;2023-07-08T07:43:31;102549.34;;;32.55;100.00
7309;BME280;3695;53.330;9.876;2023-07-08T07:45:57;102556.59;;;32.17;99.93
7309;BME280;3695;53.330;9.876;2023-07-08T07:48:24;102558.56;;;32.47;100.00
7309;BME280;3695;53.330;9.876;2023-07-08T07:50:51;102565.63;;;32.36;100.00
7309;BME280;3695;53.330;9.876;2023-07-08T07:53:19;102568.00;;;31.89;98.69
7309;BME280;3695;53.330;9.876;2023-07-08T07:55:45;102569.16;;;31.16;100.00
7309;BME280;3695;53.330;9.876;2023-07-08T07:58:12;102557.50;;;31.37;100.00
7309;BME280;3695;53.330;9.876;2023-07-08T08:00:38;102559.03;;;30.38;100.00
7309;BME280;3695;53.330;9.876;2023-07-08T08:03:05;102552.50;;;30.70;100.00
7309;BME280;3695;53.330;9.876;2023-07-08T08:05:32;102545.47;;;31.36;100.00
7309;BME280;3695;53.330;9.876;2023-07-08T08:07:58;102564.44;;;30.02;100.00
7309;BME280;3695;53.330;9.876;2023-07-08T08:10:26;102574.44;;;29.70;100.00
7309;BME280;3695;53.330;9.876;2023-07-08T08:12:52;102549.59;;;30.89;100.00
7309;BME280;3695;53.330;9.876;2023-07-08T08:15:19;102534.56;;;31.57;100.00
7309;BME280;3695;53.330;9.876;2023-07-08T08:17:46;102536.75;;;31.82;100.00
7309;BME280;3695;53.330;9.876;2023-07-08T08:20:14;102558.41;;;30.96;100.00
7309;BME280;3695;53.330;9.876;2023-07-08T08:22:41;102543.22;;;31.24;100.00
7309;BME280;3695;53.330;9.876;2023-07-08T08:25:07;102542.28;;;31.29;100.00
7309;BME280;3695;53.330;9.876;2023-07-08T08:27:36;102539.78;;;32.56;100.00
7309;BME280;3695;53.330;9.876;2023-07-08T08:30:05;102544.50;;;32.39;100.00
7309;BME280;3695;53.330;9.876;2023-07-08T08:32:33;102559.78;;;32.24;100.00
7309;BME280;3695;53.330;9.876;2023-07-08T08:34:59;102560.44;;;33.17;100.00
7309;BME280;3695;53.330;9.876;2023-07-08T08:37:26;102563.09;;;33.57;98.72
7309;BME280;3695;53.330;9.876;2023-07-08T08:39:52;102538.84;;;35.88;100.00
7309;BME280;3695;53.330;9.876;2023-07-08T08:42:25;102558.56;;;32.78;100.00
7309;BME280;3695;53.330;9.876;2023-07-08T08:44:58;102543.75;;;33.56;97.49
7309;BME280;3695;53.330;9.876;2023-07-08T08:47:31;102538.63;;;33.66;96.97
7309;BME280;3695;53.330;9.876;2023-07-08T08:50:03;102551.47;;;33.07;99.33
7309;BME280;3695;53.330;9.876;2023-07-08T08:52:31;102510.25;;;36.47;90.02
7309;BME280;3695;53.330;9.876;2023-07-08T08:54:57;102512.53;;;36.21;91.59
7309;BME280;3695;53.330;9.876;2023-07-08T08:57:32;102516.63;;;35.12;92.82
7309;BME280;3695;53.330;9.876;2023-07-08T09:00:07;102512.22;;;35.44;92.43
7309;BME280;3695;53.330;9.876;2023-07-08T09:02:39;102513.00;;;35.65;91.12
7309;BME280;3695;53.330;9.876;2023-07-08T09:05:09;102512.91;;;35.20;91.34
7309;BME280;3695;53.330;9.876;2023-07-08T09:07:42;102521.19;;;35.05;89.91
7309;BME280;3695;53.330;9.876;2023-07-08T09:10:20;102553.88;;;32.03;96.40
7309;BME280;3695;53.330;9.876;2023-07-08T09:12:53;102551.28;;;31.84;100.00
7309;BME280;3695;53.330;9.876;2023-07-08T09:15:25;102548.75;;;32.28;100.00
7309;BME280;3695;53.330;9.876;2023-07-08T09:17:53;102556.53;;;31.77;99.91
7309;BME280;3695;53.330;9.876;2023-07-08T09:20:26;102570.25;;;31.43;100.00
7309;BME280;3695;53.330;9.876;2023-07-08T09:22:57;102542.75;;;32.20;100.00
7309;BME280;3695;53.330;9.876;2023-07-08T09:25:28;102551.13;;;31.67;100.00
7309;BME280;3695;53.330;9.876;2023-07-08T09:27:56;102553.47;;;31.87;100.00
7309;BME280;3695;53.330;9.876;2023-07-08T09:30:24;102547.16;;;31.82;100.00
7309;BME280;3695;53.330;9.876;2023-07-08T09:32:54;102544.59;;;31.94;99.83
7309;BME280;3695;53.330;9.876;2023-07-08T09:35:23;102529.34;;;32.48;99.07
7309;BME280;3695;53.330;9.876;2023-07-08T09:37:51;102522.28;;;32.60;99.96
7309;BME280;3695;53.330;9.876;2023-07-08T09:40:19;102528.31;;;32.84;98.61
7309;BME280;3695;53.330;9.876;2023-07-08T09:42:51;102513.31;;;33.58;97.29
7309;BME280;3695;53.330;9.876;2023-07-08T09:45:19;102503.09;;;34.17;95.75
7309;BME280;3695;53.330;9.876;2023-07-08T09:47:51;102514.28;;;34.34;95.10
7309;BME280;3695;53.330;9.876;2023-07-08T09:50:21;102510.97;;;33.86;95.92
7309;BME280;3695;53.330;9.876;2023-07-08T09:52:48;102524.56;;;33.66;97.45
7309;BME280;3695;53.330;9.876;2023-07-08T09:55:17;102505.72;;;34.52;96.58
7309;BME280;3695;53.330;9.876;2023-07-08T09:57:45;102504.00;;;34.68;93.61
7309;BME280;3695;53.330;9.876;2023-07-08T10:00:14;102513.13;;;34.27;92.88
7309;BME280;3695;53.330;9.876;2023-07-08T10:02:44;102505.22;;;35.09;92.67
7309;BME280;3695;53.330;9.876;2023-07-08T10:05:18;102511.97;;;34.28;95.11
7309;BME280;3695;53.330;9.876;2023-07-08T10:07:46;102509.88;;;34.84;94.64
7309;BME280;3695;53.330;9.876;2023-07-08T10:10:16;102524.03;;;33.82;95.12
7309;BME280;3695;53.330;9.876;2023-07-08T10:12:53;102521.06;;;33.69;95.00
7309;BME280;3695;53.330;9.876;2023-07-08T10:15:26;102510.66;;;34.25;96.32
7309;BME280;3695;53.330;9.876;2023-07-08T10:17:53;102502.25;;;34.84;93.18
7309;BME280;3695;53.330;9.876;2023-07-08T10:20:22;102506.34;;;34.66;93.66
7309;BME280;3695;53.330;9.876;2023-07-08T10:23:01;102500.69;;;34.66;92.45
7309;BME280;3695;53.330;9.876;2023-07-08T10:25:35;102511.81;;;34.24;94.74
7309;BME280;3695;53.330;9.876;2023-07-08T10:28:19;102513.19;;;34.18;93.49
7309;BME280;3695;53.330;9.876;2023-07-08T10:30:55;102529.72;;;33.38;99.25
7309;BME280;3695;53.330;9.876;2023-07-08T10:33:45;102508.75;;;34.76;94.47
7309;BME280;3695;53.330;9.876;2023-07-08T10:36:25;102511.13;;;34.95;92.75
7309;BME280;3695;53.330;9.876;2023-07-08T10:39:12;102501.75;;;35.45;93.01
7309;BME280;3695;53.330;9.876;2023-07-08T10:41:50;102495.91;;;35.29;91.01
7309;BME280;3695;53.330;9.876;2023-07-08T10:44:26;102498.28;;;35.48;91.95
7309;BME280;3695;53.330;9.876;2023-07-08T10:47:02;102493.97;;;35.62;90.58
7309;BME280;3695;53.330;9.876;2023-07-08T10:49:42;102494.91;;;35.67;90.67
7309;BME280;3695;53.330;9.876;2023-07-08T10:52:34;102503.69;;;34.90;89.05
7309;BME280;3695;53.330;9.876;2023-07-08T10:55:15;102486.91;;;35.69;87.54
7309;BME280;3695;53.330;9.876;2023-07-08T10:58:11;102481.09;;;35.86;88.35
7309;BME280;3695;53.330;9.876;2023-07-08T11:00:44;102478.97;;;35.83;88.55
7309;BME280;3695;53.330;9.876;2023-07-08T11:03:37;102485.88;;;35.73;87.09
7309;BME280;3695;53.330;9.876;2023-07-08T11:06:10;102482.91;;;36.27;88.59
7309;BME280;3695;53.330;9.876;2023-07-08T11:08:42;102478.91;;;36.40;87.66
7309;BME280;3695;53.330;9.876;2023-07-08T11:11:16;102474.31;;;36.11;86.26
7309;BME280;3695;53.330;9.876;2023-07-08T11:13:50;102490.78;;;35.97;88.96
7309;BME280;3695;53.330;9.876;2023-07-08T11:16:23;102484.16;;;35.27;88.20
7309;BME280;3695;53.330;9.876;2023-07-08T11:18:54;102473.84;;;35.97;89.81
7309;BME280;3695;53.330;9.876;2023-07-08T11:21:26;102467.72;;;40.47;74.37
7309;BME280;3695;53.330;9.876;2023-07-08T11:24:03;102465.94;;;38.03;81.63
7309;BME280;3695;53.330;9.876;2023-07-08T11:26:36;102449.56;;;39.18;81.28
7309;BME280;3695;53.330;9.876;2023-07-08T11:29:14;102459.06;;;38.87;79.96
7309;BME280;3695;53.330;9.876;2023-07-08T11:31:41;102474.47;;;37.04;80.47
7309;BME280;3695;53.330;9.876;2023-07-08T11:34:11;102465.13;;;37.43;80.24
7309;BME280;3695;53.330;9.876;2023-07-08T11:36:39;102455.84;;;37.43;81.61
7309;BME280;3695;53.330;9.876;2023-07-08T11:39:26;102457.97;;;37.06;83.54
7309;BME280;3695;53.330;9.876;2023-07-08T11:42:04;102460.97;;;37.69;82.40
7309;BME280;3695;53.330;9.876;2023-07-08T11:44:33;102459.59;;;37.63;81.90
7309;BME280;3695;53.330;9.876;2023-07-08T11:47:00;102460.56;;;37.39;80.08
7309;BME280;3695;53.330;9.876;2023-07-08T11:49:26;102454.00;;;37.23;80.19
7309;BME280;3695;53.330;9.876;2023-07-08T11:51:54;102467.88;;;36.47;83.11
7309;BME280;3695;53.330;9.876;2023-07-08T11:54:29;102460.63;;;36.86;80.13
7309;BME280;3695;53.330;9.876;2023-07-08T11:57:04;102449.66;;;37.25;79.54
7309;BME280;3695;53.330;9.876;2023-07-08T11:59:36;102446.25;;;36.92;80.12
7309;BME280;3695;53.330;9.876;2023-07-08T12:02:04;102462.28;;;35.90;83.50
7309;BME280;3695;53.330;9.876;2023-07-08T12:04:53;102444.28;;;36.80;83.62
7309;BME280;3695;53.330;9.876;2023-07-08T12:07:30;102438.00;;;36.86;82.04
7309;BME280;3695;53.330;9.876;2023-07-08T12:10:00;102447.75;;;36.00;79.25
7309;BME280;3695;53.330;9.876;2023-07-08T12:12:32;102441.63;;;36.35;79.48
7309;BME280;3695;53.330;9.876;2023-07-08T12:15:04;102433.53;;;36.85;84.28
7309;BME280;3695;53.330;9.876;2023-07-08T12:17:32;102421.44;;;37.57;80.32
7309;BME280;3695;53.330;9.876;2023-07-08T12:20:01;102417.59;;;37.65;78.33
7309;BME280;3695;53.330;9.876;2023-07-08T12:22:29;102427.28;;;37.48;80.47
7309;BME280;3695;53.330;9.876;2023-07-08T12:24:57;102418.72;;;38.07;80.45
7309;BME280;3695;53.330;9.876;2023-07-08T12:27:30;102417.69;;;38.31;80.01
7309;BME280;3695;53.330;9.876;2023-07-08T12:29:57;102433.66;;;37.61;78.15
7309;BME280;3695;53.330;9.876;2023-07-08T12:32:23;102412.88;;;38.00;79.36
7309;BME280;3695;53.330;9.876;2023-07-08T12:34:50;102416.97;;;38.19;80.15
7309;BME280;3695;53.330;9.876;2023-07-08T12:37:17;102413.22;;;38.15;78.27
7309;BME280;3695;53.330;9.876;2023-07-08T12:39:54;102399.69;;;38.59;77.25
7309;BME280;3695;53.330;9.876;2023-07-08T12:42:22;102384.31;;;39.37;74.91
7309;BME280;3695;53.330;9.876;2023-07-08T12:44:48;102384.28;;;38.95;76.18
7309;BME280;3695;53.330;9.876;2023-07-08T12:47:20;102391.16;;;39.55;72.60
7309;BME280;3695;53.330;9.876;2023-07-08T12:49:47;102387.44;;;39.51;73.15
7309;BME280;3695;53.330;9.876;2023-07-08T12:52:21;102383.31;;;39.94;72.87
7309;BME280;3695;53.330;9.876;2023-07-08T12:54:48;102382.78;;;39.89;70.56
7309;BME280;3695;53.330;9.876;2023-07-08T12:57:14;102387.41;;;39.28;71.81
7309;BME280;3695;53.330;9.876;2023-07-08T12:59:43;102383.19;;;40.14;69.57
7309;BME280;3695;53.330;9.876;2023-07-08T13:02:14;102376.03;;;40.23;69.19
7309;BME280;3695;53.330;9.876;2023-07-08T13:04:43;102383.69;;;39.70;68.40
7309;BME280;3695;53.330;9.876;2023-07-08T13:07:33;102369.09;;;40.47;70.11
7309;BME280;3695;53.330;9.876;2023-07-08T13:10:01;102373.59;;;40.82;67.28
7309;BME280;3695;53.330;9.876;2023-07-08T13:12:28;102364.66;;;40.80;67.69
7309;BME280;3695;53.330;9.876;2023-07-08T13:14:59;102369.41;;;40.16;66.70